Time;durP1;ratioP1;P1;durP2;ratioP2;P2;SDS_P1;SDS_P2;PMS_P1;PMS_P2;Temp;Humidity;BMP_temperature;BMP_pressure;BME280_temperature;BME280_humidity;BME280_pressure;Samples;Min_cycle;Max_cycle;Signal;HPM_P1;HPM_P2
2023/05/07 00:00:07;;;;;;;14.87;5.83;;;16.60;99.90;;;;;;7288541;19;20196;-85
2023/05/07 00:02:34;;;;;;;13.97;4.93;;;16.50;99.90;;;;;;7290028;19;20648;-85
2023/05/07 00:05:00;;;;;;;16.30;5.60;;;16.50;99.90;;;;;;7289523;19;20206;-85
2023/05/07 00:07:26;;;;;;;16.47;5.30;;;16.50;99.90;;;;;;7289169;19;20216;-85
2023/05/07 00:09:51;;;;;;;13.77;5.30;;;16.60;99.90;;;;;;7289179;19;20188;-84
2023/05/07 00:12:17;;;;;;;15.60;5.20;;;16.60;99.90;;;;;;7288899;19;20208;-85
2023/05/07 00:14:43;;;;;;;18.17;5.30;;;16.60;99.90;;;;;;7289090;19;20200;-84
2023/05/07 00:17:09;;;;;;;14.40;5.00;;;16.60;99.90;;;;;;7311334;19;20683;-85
2023/05/07 00:19:35;;;;;;;16.30;5.57;;;16.60;99.90;;;;;;7288913;19;20524;-85
2023/05/07 00:22:00;;;;;;;13.90;4.60;;;16.70;99.90;;;;;;7286425;19;20185;-85
2023/05/07 00:24:26;;;;;;;14.53;4.93;;;16.70;99.90;;;;;;7289092;19;20192;-85
2023/05/07 00:26:52;;;;;;;12.50;4.83;;;16.80;99.90;;;;;;7289552;19;20557;-85
2023/05/07 00:29:18;;;;;;;14.60;5.03;;;16.70;99.90;;;;;;7287618;19;20263;-85
2023/05/07 00:31:44;;;;;;;18.37;5.43;;;16.80;99.90;;;;;;7289112;19;20205;-85
2023/05/07 00:34:10;;;;;;;17.03;4.87;;;16.80;99.90;;;;;;7308323;19;20296;-81
2023/05/07 00:36:35;;;;;;;16.03;5.20;;;16.80;99.90;;;;;;7298453;19;20572;-85
2023/05/07 00:39:03;;;;;;;17.57;5.73;;;16.90;99.90;;;;;;7287738;19;20184;-85
2023/05/07 00:41:32;;;;;;;12.07;4.90;;;17.00;99.90;;;;;;7287094;19;20554;-84
2023/05/07 00:43:58;;;;;;;11.47;5.13;;;17.00;99.90;;;;;;7287770;19;20192;-85
2023/05/07 00:46:24;;;;;;;16.83;5.67;;;17.00;99.90;;;;;;7289387;19;20618;-85
2023/05/07 00:48:51;;;;;;;14.07;5.27;;;17.00;99.90;;;;;;7288122;19;20193;-85
2023/05/07 00:51:18;;;;;;;15.60;5.07;;;17.00;99.90;;;;;;7286663;19;20208;-85
2023/05/07 00:53:44;;;;;;;16.77;5.30;;;17.00;99.90;;;;;;7287993;19;20200;-84
2023/05/07 00:56:11;;;;;;;15.50;5.60;;;17.00;99.90;;;;;;7308404;19;20252;-82
2023/05/07 00:58:37;;;;;;;16.07;5.13;;;16.90;99.90;;;;;;7311869;19;20217;-85
2023/05/07 01:01:04;;;;;;;15.20;4.97;;;16.80;99.90;;;;;;7289222;19;20233;-85
2023/05/07 01:03:30;;;;;;;16.03;5.53;;;16.60;99.90;;;;;;7287925;19;20536;-85
2023/05/07 01:05:58;;;;;;;19.90;5.90;;;16.50;99.90;;;;;;7291852;19;20222;-83
2023/05/07 01:08:26;;;;;;;15.50;5.63;;;16.40;99.90;;;;;;7306382;19;20224;-83
2023/05/07 01:10:52;;;;;;;15.90;5.70;;;16.40;99.90;;;;;;7316380;19;20193;-84
2023/05/07 01:13:20;;;;;;;14.13;5.03;;;16.40;99.90;;;;;;7307330;19;20185;-84
2023/05/07 01:15:46;;;;;;;17.40;5.47;;;16.50;99.90;;;;;;7292924;19;20260;-85
2023/05/07 01:18:13;;;;;;;17.00;5.50;;;16.50;99.90;;;;;;7289878;19;20262;-84
2023/05/07 01:20:38;;;;;;;12.33;5.00;;;16.50;99.90;;;;;;7309771;19;20190;-85
2023/05/07 01:23:07;;;;;;;14.30;5.50;;;16.50;99.90;;;;;;7287823;19;20213;-85
2023/05/07 01:25:33;;;;;;;17.07;5.77;;;16.60;99.90;;;;;;7288388;19;20217;-85
2023/05/07 01:28:01;;;;;;;15.60;5.30;;;16.60;99.90;;;;;;7286048;19;20212;-85
2023/05/07 01:30:30;;;;;;;17.30;5.80;;;16.70;99.90;;;;;;7287943;19;20585;-85
2023/05/07 01:33:04;;;;;;;17.13;6.07;;;16.60;99.90;;;;;;7287315;19;20661;-85
2023/05/07 01:35:38;;;;;;;13.27;5.27;;;16.60;99.90;;;;;;7287168;19;20202;-85
2023/05/07 01:38:05;;;;;;;14.03;4.80;;;16.50;99.90;;;;;;7288671;19;20189;-85
2023/05/07 01:40:31;;;;;;;16.53;5.20;;;16.40;99.90;;;;;;7285270;19;20259;-85
2023/05/07 01:42:58;;;;;;;17.77;5.50;;;16.20;99.90;;;;;;7285436;19;20273;-85
2023/05/07 01:45:25;;;;;;;17.27;5.33;;;16.10;99.90;;;;;;7287251;19;20192;-84
2023/05/07 01:47:52;;;;;;;13.33;5.77;;;16.10;99.90;;;;;;7287130;19;20181;-85
2023/05/07 01:50:20;;;;;;;18.63;5.63;;;16.10;99.90;;;;;;7284760;19;20195;-85
2023/05/07 01:52:47;;;;;;;17.30;5.30;;;16.10;99.90;;;;;;7286106;19;20213;-84
2023/05/07 01:55:13;;;;;;;15.60;6.13;;;16.20;99.90;;;;;;7287627;19;20660;-84
2023/05/07 01:57:38;;;;;;;14.87;5.70;;;16.30;99.90;;;;;;7308467;19;20532;-85
2023/05/07 02:00:05;;;;;;;15.57;6.20;;;16.30;99.90;;;;;;7293536;19;20234;-85
2023/05/07 02:02:41;;;;;;;16.07;5.93;;;16.30;99.90;;;;;;7305013;19;20195;-82
2023/05/07 02:05:12;;;;;;;14.53;5.70;;;16.40;99.90;;;;;;7312574;19;20181;-81
2023/05/07 02:07:41;;;;;;;13.20;5.57;;;16.40;99.90;;;;;;7297653;19;20543;-84
2023/05/07 02:10:07;;;;;;;17.17;6.20;;;16.40;99.90;;;;;;7307747;19;20176;-84
2023/05/07 02:12:33;;;;;;;16.63;5.93;;;16.40;99.90;;;;;;7283964;19;20181;-84
2023/05/07 02:14:59;;;;;;;13.60;5.60;;;16.10;99.90;;;;;;7284045;19;20199;-84
2023/05/07 02:17:25;;;;;;;17.17;6.20;;;16.10;99.90;;;;;;7286070;19;20184;-85
2023/05/07 02:19:51;;;;;;;17.13;6.00;;;16.00;99.90;;;;;;7292541;19;20184;-84
2023/05/07 02:22:18;;;;;;;13.70;5.50;;;15.90;99.90;;;;;;7298856;19;20194;-84
2023/05/07 02:24:44;;;;;;;13.63;5.90;;;15.80;99.90;;;;;;7298160;19;20640;-84
2023/05/07 02:27:10;;;;;;;15.50;5.57;;;15.70;99.90;;;;;;7318784;19;20187;-81
2023/05/07 02:29:36;;;;;;;13.97;5.70;;;15.90;99.90;;;;;;7314013;19;20205;-85
2023/05/07 02:32:02;;;;;;;15.40;5.63;;;16.00;99.90;;;;;;7299771;19;20186;-85
2023/05/07 02:34:30;;;;;;;14.30;5.50;;;16.10;99.90;;;;;;7298885;19;20181;-85
2023/05/07 02:36:56;;;;;;;11.63;5.33;;;16.10;99.90;;;;;;7299477;19;20191;-85
2023/05/07 02:39:24;;;;;;;15.33;5.47;;;16.10;99.90;;;;;;7299699;19;20186;-85
2023/05/07 02:41:50;;;;;;;15.90;5.67;;;16.20;99.90;;;;;;7298507;19;20205;-85
2023/05/07 02:44:16;;;;;;;16.40;5.63;;;16.20;99.90;;;;;;7296969;19;20184;-84
2023/05/07 02:46:43;;;;;;;13.57;5.63;;;16.20;99.90;;;;;;7296653;19;20236;-84
2023/05/07 02:49:12;;;;;;;14.43;5.67;;;16.10;99.90;;;;;;7302256;19;20191;-84
2023/05/07 02:51:38;;;;;;;10.87;5.67;;;16.10;99.90;;;;;;7320107;19;20274;-85
2023/05/07 02:54:09;;;;;;;13.43;5.50;;;16.20;99.90;;;;;;7296863;19;20205;-85
2023/05/07 02:56:35;;;;;;;16.53;5.80;;;16.20;99.90;;;;;;7299488;19;20184;-84
2023/05/07 02:59:01;;;;;;;14.07;5.40;;;16.10;99.90;;;;;;7298467;19;20214;-85
2023/05/07 03:01:31;;;;;;;17.80;6.00;;;16.10;99.90;;;;;;7296270;19;20213;-85
2023/05/07 03:04:01;;;;;;;16.77;5.77;;;16.10;99.90;;;;;;7299025;19;20181;-84
2023/05/07 03:06:27;;;;;;;13.57;5.50;;;16.00;99.90;;;;;;7299230;19;20197;-84
2023/05/07 03:08:55;;;;;;;11.87;5.10;;;16.00;99.90;;;;;;7299533;19;20688;-85
2023/05/07 03:11:21;;;;;;;16.27;5.60;;;16.00;99.90;;;;;;7297221;19;20193;-83
2023/05/07 03:13:48;;;;;;;13.10;5.27;;;16.10;99.90;;;;;;7298103;19;20496;-83
2023/05/07 03:16:15;;;;;;;13.70;5.40;;;16.20;99.90;;;;;;7297884;19;20192;-84
2023/05/07 03:18:41;;;;;;;14.67;5.43;;;16.20;99.90;;;;;;7314816;19;20188;-82
2023/05/07 03:21:06;;;;;;;12.47;5.33;;;16.20;99.90;;;;;;7310678;19;20586;-84
2023/05/07 03:23:32;;;;;;;14.07;5.00;;;16.20;99.90;;;;;;7298686;19;20193;-84
2023/05/07 03:25:58;;;;;;;10.60;5.27;;;16.20;99.90;;;;;;7300834;19;20192;-84
2023/05/07 03:28:24;;;;;;;15.00;5.30;;;16.30;99.90;;;;;;7298961;19;20195;-84
2023/05/07 03:30:55;;;;;;;14.53;5.00;;;16.30;99.90;;;;;;7292726;19;20189;-84
2023/05/07 03:33:21;;;;;;;12.43;5.43;;;16.30;99.90;;;;;;7289798;19;20189;-84
2023/05/07 03:35:48;;;;;;;12.90;5.13;;;16.30;99.90;;;;;;7289985;19;20195;-83
2023/05/07 03:38:19;;;;;;;14.87;5.17;;;16.30;99.90;;;;;;7290358;19;20202;-83
2023/05/07 03:40:44;;;;;;;13.33;5.00;;;16.30;99.90;;;;;;7289107;19;20636;-83
2023/05/07 03:43:10;;;;;;;13.53;5.03;;;16.40;99.90;;;;;;7310838;19;20177;-81
2023/05/07 03:45:40;;;;;;;14.43;4.83;;;16.50;99.90;;;;;;7312611;19;20651;-84
2023/05/07 03:48:14;;;;;;;11.97;5.07;;;16.40;99.90;;;;;;7267567;19;20192;-84
2023/05/07 03:50:40;;;;;;;12.10;4.87;;;16.40;99.90;;;;;;7312312;19;20195;-84
2023/05/07 03:53:06;;;;;;;9.87;4.73;;;16.40;99.90;;;;;;7290439;19;20205;-84
2023/05/07 03:55:37;;;;;;;9.60;4.40;;;16.40;99.90;;;;;;7289493;19;20180;-84
2023/05/07 03:58:02;;;;;;;14.90;5.50;;;16.30;99.90;;;;;;7289076;19;20255;-84
2023/05/07 04:00:28;;;;;;;18.50;5.37;;;16.30;99.90;;;;;;7289481;19;20185;-84
2023/05/07 04:02:58;;;;;;;9.43;4.70;;;16.30;99.90;;;;;;7287890;19;20193;-84
2023/05/07 04:05:28;;;;;;;12.77;4.87;;;16.40;99.90;;;;;;7290725;19;20190;-84
2023/05/07 04:07:59;;;;;;;11.33;5.30;;;16.50;99.90;;;;;;7289873;19;20194;-84
2023/05/07 04:10:35;;;;;;;13.27;4.77;;;16.50;99.90;;;;;;7290803;19;20188;-84
2023/05/07 04:13:06;;;;;;;11.13;4.77;;;16.60;99.90;;;;;;7289582;19;20188;-84
2023/05/07 04:15:32;;;;;;;12.10;4.37;;;16.50;99.90;;;;;;7290360;19;20662;-84
2023/05/07 04:17:58;;;;;;;13.73;5.00;;;16.40;99.90;;;;;;7291830;19;20589;-84
2023/05/07 04:20:25;;;;;;;14.67;5.33;;;16.40;99.90;;;;;;7289183;19;20192;-84
2023/05/07 04:22:57;;;;;;;12.60;4.90;;;16.40;99.90;;;;;;7289366;19;20260;-84
2023/05/07 04:25:26;;;;;;;13.43;5.00;;;16.40;99.90;;;;;;7288793;19;20189;-84
2023/05/07 04:27:53;;;;;;;12.17;4.90;;;16.40;99.90;;;;;;7290672;19;20209;-84
2023/05/07 04:30:19;;;;;;;15.37;5.27;;;16.50;99.90;;;;;;7289131;19;20185;-84
2023/05/07 04:32:45;;;;;;;14.87;5.63;;;16.50;99.90;;;;;;7288266;19;20248;-84
2023/05/07 04:35:11;;;;;;;17.60;5.67;;;16.60;99.90;;;;;;7309641;19;20210;-82
2023/05/07 04:37:37;;;;;;;14.53;5.37;;;16.70;99.90;;;;;;7308142;19;20616;-85
2023/05/07 04:40:05;;;;;;;13.27;5.33;;;16.80;99.90;;;;;;7289113;19;20621;-84
2023/05/07 04:42:31;;;;;;;14.17;4.97;;;16.80;99.90;;;;;;7289498;19;20200;-84
2023/05/07 04:44:58;;;;;;;15.33;5.13;;;16.80;99.90;;;;;;7290218;19;20218;-84
2023/05/07 04:47:24;;;;;;;13.60;5.03;;;16.80;99.90;;;;;;7288531;19;20197;-84
2023/05/07 04:49:50;;;;;;;13.60;5.13;;;16.80;99.90;;;;;;7307545;19;20189;-84
2023/05/07 04:52:16;;;;;;;11.27;4.97;;;16.80;99.90;;;;;;7306043;19;20230;-84
2023/05/07 04:54:42;;;;;;;13.27;4.90;;;16.90;99.90;;;;;;7293964;19;20727;-84
2023/05/07 04:57:08;;;;;;;13.70;4.80;;;17.00;99.90;;;;;;7310372;19;20220;-84
2023/05/07 04:59:35;;;;;;;12.50;4.87;;;17.10;99.90;;;;;;7288640;19;20181;-84
2023/05/07 05:02:01;;;;;;;11.40;4.50;;;17.20;99.90;;;;;;7289705;19;20193;-85
2023/05/07 05:04:27;;;;;;;15.37;5.13;;;17.30;99.90;;;;;;7288386;19;20505;-84
2023/05/07 05:06:53;;;;;;;11.57;4.80;;;17.30;99.90;;;;;;7287560;19;20576;-84
2023/05/07 05:09:19;;;;;;;15.57;5.33;;;17.40;99.90;;;;;;7286209;19;20215;-84
2023/05/07 05:11:45;;;;;;;14.13;4.60;;;17.50;99.90;;;;;;7286070;19;20187;-85
2023/05/07 05:14:11;;;;;;;11.87;4.83;;;17.50;99.90;;;;;;7306959;19;20654;-83
2023/05/07 05:16:40;;;;;;;13.63;5.00;;;17.60;99.90;;;;;;7307999;19;20195;-83
2023/05/07 05:19:06;;;;;;;11.80;4.70;;;17.70;99.90;;;;;;7288131;19;20180;-84
2023/05/07 05:21:35;;;;;;;14.87;4.93;;;17.70;99.90;;;;;;7287977;19;20233;-85
2023/05/07 05:24:06;;;;;;;11.33;4.73;;;17.70;99.90;;;;;;7287088;19;20770;-85
2023/05/07 05:26:32;;;;;;;11.00;5.30;;;17.70;99.90;;;;;;7286672;19;20183;-84
2023/05/07 05:28:58;;;;;;;11.20;4.97;;;17.70;99.90;;;;;;7285189;19;20207;-84
2023/05/07 05:31:26;;;;;;;10.10;4.37;;;17.70;99.90;;;;;;7286271;19;20199;-84
2023/05/07 05:33:51;;;;;;;12.20;5.33;;;17.90;99.90;;;;;;7286374;19;20259;-83
2023/05/07 05:36:17;;;;;;;11.40;5.17;;;18.00;99.90;;;;;;7284475;19;20200;-83
2023/05/07 05:38:45;;;;;;;16.80;5.93;;;18.00;99.90;;;;;;7287023;19;20185;-84
2023/05/07 05:41:12;;;;;;;13.53;5.20;;;17.90;99.90;;;;;;7295621;19;20644;-84
2023/05/07 05:43:37;;;;;;;16.63;5.63;;;17.90;99.90;;;;;;7306739;19;20201;-83
2023/05/07 05:46:04;;;;;;;17.87;5.87;;;17.90;99.90;;;;;;7287435;19;20248;-83
2023/05/07 05:48:30;;;;;;;15.03;5.40;;;17.90;99.90;;;;;;7285229;19;21007;-84
2023/05/07 05:50:57;;;;;;;13.77;6.07;;;17.90;99.90;;;;;;7288250;19;20362;-84
2023/05/07 05:53:23;;;;;;;14.30;5.50;;;17.90;99.90;;;;;;7287236;19;20204;-86
2023/05/07 05:55:50;;;;;;;15.03;5.23;;;17.90;99.90;;;;;;7287767;19;20208;-85
2023/05/07 05:58:16;;;;;;;16.10;5.63;;;17.90;99.90;;;;;;7287903;19;20200;-85
2023/05/07 06:00:52;;;;;;;15.20;5.77;;;18.00;99.90;;;;;;7287180;19;20679;-85
2023/05/07 06:03:18;;;;;;;14.17;5.60;;;18.10;99.90;;;;;;7298158;19;20217;-84
2023/05/07 06:05:47;;;;;;;15.23;5.53;;;18.00;99.90;;;;;;7291403;19;20679;-83
2023/05/07 06:08:13;;;;;;;10.73;4.57;;;17.90;99.90;;;;;;7291069;19;20204;-83
2023/05/07 06:10:40;;;;;;;14.30;5.90;;;17.90;99.90;;;;;;7312019;19;20184;-84
2023/05/07 06:13:07;;;;;;;16.70;6.00;;;17.90;99.90;;;;;;7288354;19;20558;-80
2023/05/07 06:15:35;;;;;;;14.67;5.70;;;17.90;99.90;;;;;;7287662;19;20640;-80
2023/05/07 06:18:06;;;;;;;16.03;5.93;;;18.00;99.90;;;;;;7289686;19;20287;-80
2023/05/07 06:20:32;;;;;;;13.93;6.10;;;18.10;99.90;;;;;;7290254;19;20247;-80
2023/05/07 06:23:00;;;;;;;17.33;6.07;;;18.10;99.90;;;;;;7288136;19;20281;-81
2023/05/07 06:25:27;;;;;;;15.10;5.60;;;18.00;99.90;;;;;;7288614;19;20203;-83
2023/05/07 06:27:53;;;;;;;17.07;5.77;;;18.00;99.90;;;;;;7282246;19;20189;-83
2023/05/07 06:30:18;;;;;;;16.87;5.83;;;18.10;99.90;;;;;;7286710;19;20198;-83
2023/05/07 06:32:45;;;;;;;17.07;6.30;;;18.20;99.90;;;;;;7286986;19;20228;-82
2023/05/07 06:35:13;;;;;;;14.37;5.97;;;18.20;99.90;;;;;;7312968;19;20189;-83
2023/05/07 06:37:42;;;;;;;16.57;6.20;;;18.30;99.90;;;;;;7286296;19;20216;-82
2023/05/07 06:40:12;;;;;;;13.97;5.80;;;18.30;99.90;;;;;;7287933;19;20667;-82
2023/05/07 06:42:39;;;;;;;15.47;5.93;;;18.50;99.90;;;;;;7283328;19;20651;-83
2023/05/07 06:45:23;;;;;;;14.60;6.60;;;18.50;99.90;;;;;;7185002;19;2004383;-85
2023/05/07 06:47:49;;;;;;;13.30;5.57;;;18.50;99.90;;;;;;7283175;19;20200;-84
2023/05/07 06:50:16;;;;;;;16.97;6.10;;;18.50;99.90;;;;;;7282949;19;20673;-83
2023/05/07 06:52:43;;;;;;;16.63;6.63;;;18.40;99.90;;;;;;7284419;19;20543;-82
2023/05/07 06:55:11;;;;;;;14.63;6.43;;;18.50;99.90;;;;;;7305551;19;20190;-84
2023/05/07 06:57:38;;;;;;;15.87;6.53;;;18.60;99.90;;;;;;7284999;19;20201;-82
2023/05/07 07:00:06;;;;;;;16.83;6.67;;;18.60;99.90;;;;;;7284593;19;20238;-82
2023/05/07 07:02:40;;;;;;;14.60;6.03;;;18.60;99.90;;;;;;7287046;19;20667;-81
2023/05/07 07:05:06;;;;;;;12.97;5.93;;;18.60;99.90;;;;;;7285812;19;20196;-83
2023/05/07 07:07:32;;;;;;;12.60;5.93;;;18.60;99.90;;;;;;7289912;19;20183;-83
2023/05/07 07:09:58;;;;;;;14.33;5.60;;;18.50;99.90;;;;;;7290793;19;20652;-84
2023/05/07 07:12:25;;;;;;;16.40;6.43;;;18.40;99.90;;;;;;7290713;19;20207;-84
2023/05/07 07:14:51;;;;;;;17.07;6.67;;;18.40;99.90;;;;;;7290219;19;20193;-83
2023/05/07 07:17:17;;;;;;;13.47;6.07;;;18.50;99.90;;;;;;7291536;19;20202;-83
2023/05/07 07:19:43;;;;;;;13.70;6.13;;;18.60;99.90;;;;;;7298156;19;20824;-83
2023/05/07 07:22:10;;;;;;;21.17;7.20;;;18.50;99.90;;;;;;7311056;19;20194;-84
2023/05/07 07:24:35;;;;;;;15.53;6.70;;;18.30;99.90;;;;;;7290863;19;20193;-83
2023/05/07 07:27:04;;;;;;;13.93;6.33;;;18.30;99.90;;;;;;7290635;19;20185;-84
2023/05/07 07:29:33;;;;;;;16.57;6.50;;;18.10;99.90;;;;;;7288891;19;20203;-83
2023/05/07 07:31:58;;;;;;;15.57;6.50;;;18.10;99.90;;;;;;7292112;19;20180;-83
2023/05/07 07:34:25;;;;;;;15.97;6.33;;;18.00;99.90;;;;;;7290204;19;20185;-83
2023/05/07 07:36:51;;;;;;;12.83;6.23;;;18.20;99.90;;;;;;7291722;19;20193;-83
2023/05/07 07:39:18;;;;;;;17.87;6.50;;;18.30;99.90;;;;;;7291662;19;20188;-83
2023/05/07 07:41:45;;;;;;;17.13;6.30;;;18.30;99.90;;;;;;7289083;19;20212;-82
2023/05/07 07:44:12;;;;;;;14.10;6.60;;;18.20;99.90;;;;;;7315407;19;20181;-83
2023/05/07 07:46:39;;;;;;;12.40;5.73;;;18.10;99.90;;;;;;7293042;19;20189;-83
2023/05/07 07:49:06;;;;;;;17.47;6.23;;;18.10;99.90;;;;;;7290491;19;20598;-83
2023/05/07 07:51:32;;;;;;;13.73;6.03;;;18.10;99.90;;;;;;7289353;19;20201;-83
2023/05/07 07:54:00;;;;;;;14.40;6.53;;;18.10;99.90;;;;;;7288771;19;20194;-83
2023/05/07 07:56:26;;;;;;;14.47;6.57;;;18.20;99.90;;;;;;7290404;19;20213;-83
2023/05/07 07:58:52;;;;;;;14.30;6.13;;;18.40;99.90;;;;;;7288052;19;20618;-83
2023/05/07 08:01:18;;;;;;;14.33;6.90;;;18.60;99.90;;;;;;7291571;19;20250;-82
2023/05/07 08:03:46;;;;;;;12.57;6.50;;;18.80;99.90;;;;;;7287967;19;20184;-83
2023/05/07 08:06:12;;;;;;;13.27;6.33;;;19.00;99.90;;;;;;7309046;19;20185;-80
2023/05/07 08:08:39;;;;;;;13.10;6.10;;;19.20;99.90;;;;;;7305059;19;20524;-83
2023/05/07 08:11:05;;;;;;;13.20;6.00;;;19.30;99.90;;;;;;7289510;19;20193;-83
2023/05/07 08:13:33;;;;;;;13.50;5.90;;;19.30;99.90;;;;;;7288544;19;20656;-84
2023/05/07 08:15:59;;;;;;;11.87;5.93;;;19.30;99.90;;;;;;7292772;19;20209;-82
2023/05/07 08:18:28;;;;;;;17.40;7.20;;;19.10;99.90;;;;;;7288927;19;20560;-83
2023/05/07 08:20:54;;;;;;;15.00;6.17;;;19.10;99.90;;;;;;7292228;19;20184;-83
2023/05/07 08:23:23;;;;;;;15.27;6.97;;;19.00;99.90;;;;;;7292077;19;20216;-84
2023/05/07 08:25:49;;;;;;;14.50;7.23;;;18.80;99.90;;;;;;7293518;19;20179;-84
2023/05/07 08:28:17;;;;;;;12.07;6.60;;;18.60;99.90;;;;;;7313728;19;20187;-80
2023/05/07 08:30:42;;;;;;;12.90;6.70;;;18.50;99.90;;;;;;7341574;19;20185;-80
2023/05/07 08:33:09;;;;;;;16.50;8.10;;;18.50;99.90;;;;;;7332582;19;20178;-84
2023/05/07 08:35:35;;;;;;;15.47;7.17;;;18.50;99.90;;;;;;7301744;19;20193;-84
2023/05/07 08:38:01;;;;;;;13.43;7.07;;;18.60;99.90;;;;;;7289389;19;20186;-84
2023/05/07 08:40:28;;;;;;;13.10;6.63;;;18.60;99.90;;;;;;7287370;19;20184;-83
2023/05/07 08:42:57;;;;;;;14.50;7.20;;;18.70;99.90;;;;;;7287746;19;20196;-84
2023/05/07 08:45:32;;;;;;;14.67;6.60;;;18.80;99.90;;;;;;7291507;19;20190;-78
2023/05/07 08:48:00;;;;;;;13.20;6.67;;;18.90;99.90;;;;;;7288316;19;20221;-77
2023/05/07 08:50:30;;;;;;;12.57;6.50;;;19.00;99.90;;;;;;7288263;19;20693;-78
2023/05/07 08:52:57;;;;;;;14.30;7.47;;;19.10;99.90;;;;;;7292318;19;20261;-78
2023/05/07 08:55:27;;;;;;;14.03;6.77;;;19.30;99.90;;;;;;7290290;19;20528;-79
2023/05/07 08:57:53;;;;;;;13.67;6.90;;;19.40;99.90;;;;;;7284069;19;20290;-79
2023/05/07 09:00:22;;;;;;;15.03;7.10;;;19.40;99.90;;;;;;7316725;19;20552;-77
2023/05/07 09:02:51;;;;;;;16.30;6.97;;;19.50;99.90;;;;;;7288238;19;20683;-78
2023/05/07 09:05:18;;;;;;;19.07;7.23;;;19.50;99.90;;;;;;7289411;19;20199;-78
2023/05/07 09:07:47;;;;;;;16.63;6.73;;;19.50;99.90;;;;;;7293360;19;20190;-79
2023/05/07 09:10:14;;;;;;;13.67;6.23;;;19.50;99.90;;;;;;7296891;19;20211;-79
2023/05/07 09:12:42;;;;;;;14.77;6.10;;;19.70;99.90;;;;;;7308969;19;20198;-79
2023/05/07 09:15:12;;;;;;;13.80;6.00;;;19.90;99.90;;;;;;7281988;19;20184;-79
2023/05/07 09:17:38;;;;;;;12.07;5.33;;;20.10;99.90;;;;;;7287077;19;20187;-79
2023/05/07 09:20:05;;;;;;;12.97;5.27;;;20.00;99.90;;;;;;7287734;19;20696;-79
2023/05/07 09:22:51;;;;;;;13.23;5.33;;;20.00;99.90;;;;;;7282608;19;20192;-80
2023/05/07 09:25:29;;;;;;;16.97;5.93;;;20.00;99.90;;;;;;7264427;19;20196;-79
2023/05/07 09:28:14;;;;;;;13.33;6.53;;;20.00;99.90;;;;;;7283485;19;20220;-79
2023/05/07 09:30:40;;;;;;;12.00;5.80;;;19.80;99.90;;;;;;7283545;19;20223;-79
2023/05/07 09:33:09;;;;;;;15.17;6.20;;;19.70;99.90;;;;;;7285256;19;20557;-79
2023/05/07 09:35:39;;;;;;;11.90;5.80;;;19.40;99.90;;;;;;7286909;19;20200;-79
2023/05/07 09:38:09;;;;;;;13.17;6.30;;;19.50;99.90;;;;;;7288179;19;20711;-80
2023/05/07 09:40:36;;;;;;;12.43;5.70;;;19.50;99.90;;;;;;7288826;19;20668;-79
2023/05/07 09:43:13;;;;;;;11.87;5.63;;;19.60;99.90;;;;;;7288147;19;20267;-80
2023/05/07 09:45:51;;;;;;;11.53;5.50;;;19.70;99.90;;;;;;7183087;19;2005659;-82
2023/05/07 09:48:19;;;;;;;13.43;5.33;;;19.80;99.90;;;;;;7285344;19;20205;-82
2023/05/07 09:50:51;;;;;;;10.27;4.03;;;20.00;99.90;;;;;;7282613;19;20191;-81
2023/05/07 09:53:21;;;;;;;11.10;5.00;;;20.20;99.90;;;;;;7284867;19;20195;-83
2023/05/07 09:55:48;;;;;;;17.53;11.50;;;20.30;99.90;;;;;;7283102;19;20274;-82
2023/05/07 09:58:16;;;;;;;9.17;4.30;;;20.50;99.90;;;;;;7299839;19;20764;-82
2023/05/07 10:00:46;;;;;;;10.13;4.27;;;20.60;99.90;;;;;;7330984;19;20188;-80
2023/05/07 10:03:15;;;;;;;11.00;4.47;;;20.70;99.90;;;;;;7294865;19;20199;-82
2023/05/07 10:05:50;;;;;;;13.43;6.70;;;20.70;99.90;;;;;;7285085;19;20207;-82
2023/05/07 10:08:19;;;;;;;10.53;4.00;;;20.80;99.90;;;;;;7287049;19;20213;-83
2023/05/07 10:10:48;;;;;;;9.70;3.73;;;20.90;99.90;;;;;;7284919;19;20202;-86
2023/05/07 10:13:21;;;;;;;8.33;3.00;;;21.00;99.90;;;;;;7286394;19;20199;-84
2023/05/07 10:15:50;;;;;;;10.17;4.00;;;20.90;99.90;;;;;;7288363;19;20200;-86
2023/05/07 10:18:22;;;;;;;9.17;2.70;;;20.80;99.90;;;;;;7286179;19;20192;-85
2023/05/07 10:20:52;;;;;;;6.63;2.60;;;20.70;99.90;;;;;;7287120;19;20713;-84
2023/05/07 10:23:24;;;;;;;8.00;3.03;;;20.70;99.90;;;;;;7282055;19;20212;-85
2023/05/07 10:25:54;;;;;;;8.60;3.30;;;20.70;99.90;;;;;;7285956;19;20267;-85
2023/05/07 10:28:24;;;;;;;6.73;2.47;;;20.80;99.90;;;;;;7284186;19;20211;-85
2023/05/07 10:30:54;;;;;;;8.67;2.73;;;20.80;99.90;;;;;;7284368;19;20194;-85
2023/05/07 10:33:26;;;;;;;6.67;2.93;;;20.80;99.90;;;;;;7286297;19;20196;-85
2023/05/07 10:35:58;;;;;;;12.47;4.27;;;20.80;99.90;;;;;;7283411;19;20198;-85
2023/05/07 10:38:25;;;;;;;10.47;3.00;;;20.80;99.90;;;;;;7284575;19;20190;-85
2023/05/07 10:40:51;;;;;;;11.57;3.77;;;20.80;99.90;;;;;;7288011;19;20253;-85
2023/05/07 10:43:17;;;;;;;9.27;3.83;;;20.80;99.90;;;;;;7295354;19;20195;-84
2023/05/07 10:46:20;;;;;;;8.10;3.33;;;20.80;99.90;;;;;;7294504;19;20189;-85
2023/05/07 10:49:08;;;;;;;7.50;3.53;;;20.90;99.90;;;;;;7185057;19;2004874;-84
2023/05/07 10:52:12;;;;;;;11.23;3.67;;;21.20;99.90;;;;;;7189990;19;2004542;-84
2023/05/07 10:54:38;;;;;;;19.13;8.23;;;21.20;99.90;;;;;;7294939;19;20197;-84
2023/05/07 10:57:38;;;;;;;9.40;4.77;;;21.30;99.90;;;;;;7307208;19;20211;-85
2023/05/07 11:00:23;;;;;;;9.40;3.63;;;21.40;99.90;;;;;;7199021;19;2004578;-83
2023/05/07 11:03:00;;;;;;;11.27;5.13;;;21.50;99.90;;;;;;7307344;19;20260;-84
2023/05/07 11:05:32;;;;;;;10.47;3.83;;;21.60;99.90;;;;;;7310841;19;20222;-84
2023/05/07 11:08:12;;;;;;;8.80;3.27;;;21.50;99.90;;;;;;7297468;19;20220;-80
2023/05/07 11:10:55;;;;;;;10.93;3.23;;;21.50;99.90;;;;;;7186912;19;2004713;-80
2023/05/07 11:13:45;;;;;;;8.53;3.07;;;21.50;99.90;;;;;;7288213;19;20188;-78
2023/05/07 11:16:22;;;;;;;10.27;3.33;;;21.50;99.90;;;;;;7266852;19;20203;-81
2023/05/07 11:18:54;;;;;;;5.60;2.47;;;21.30;99.90;;;;;;7288102;19;20204;-79
2023/05/07 11:21:41;;;;;;;7.33;2.60;;;21.30;99.90;;;;;;7287606;19;20208;-79
2023/05/07 11:24:21;;;;;;;6.87;2.80;;;21.40;99.90;;;;;;7186352;19;2004587;-80
2023/05/07 11:27:11;;;;;;;8.80;3.17;;;21.50;99.90;;;;;;7293073;19;20184;-81
2023/05/07 11:29:36;;;;;;;6.50;3.00;;;21.50;99.90;;;;;;7293002;19;20237;-79
2023/05/07 11:32:07;;;;;;;5.70;2.87;;;21.70;99.90;;;;;;7293020;19;20260;-80
2023/05/07 11:34:39;;;;;;;8.60;3.13;;;21.90;99.90;;;;;;7286938;19;20222;-79
2023/05/07 11:37:05;;;;;;;11.37;5.07;;;22.20;99.90;;;;;;7288219;19;20186;-80
2023/05/07 11:39:43;;;;;;;12.53;6.80;;;22.40;99.90;;;;;;7288452;19;20275;-82
2023/05/07 11:42:30;;;;;;;9.30;3.40;;;22.80;99.90;;;;;;7287546;19;20185;-84
2023/05/07 11:44:56;;;;;;;6.40;3.27;;;23.00;99.90;;;;;;7392866;19;20236;-84
2023/05/07 11:47:32;;;;;;;6.20;2.73;;;23.10;99.90;;;;;;7287615;19;20611;-83
2023/05/07 11:50:04;;;;;;;8.63;3.73;;;23.20;99.90;;;;;;7286918;19;20193;-85
2023/05/07 11:52:30;;;;;;;7.63;4.27;;;22.90;99.90;;;;;;7284151;19;20857;-83
2023/05/07 11:54:58;;;;;;;9.93;4.27;;;23.00;99.90;;;;;;7287473;19;20199;-83
2023/05/07 11:57:24;;;;;;;7.67;3.70;;;23.10;99.90;;;;;;7292581;19;20206;-83
2023/05/07 12:00:04;;;;;;;8.90;4.57;;;23.10;99.90;;;;;;7286847;19;20212;-82
2023/05/07 12:02:38;;;;;;;7.83;4.73;;;23.00;99.90;;;;;;7283894;19;20221;-84
2023/05/07 12:05:04;;;;;;;9.67;5.27;;;23.10;99.90;;;;;;7282379;19;20670;-84
2023/05/07 12:07:37;;;;;;;7.77;5.13;;;23.30;99.90;;;;;;7281752;19;20188;-84
2023/05/07 12:10:11;;;;;;;9.13;5.67;;;23.40;99.90;;;;;;7283728;19;20212;-83
2023/05/07 12:12:46;;;;;;;9.60;5.40;;;23.10;99.90;;;;;;7285851;19;20181;-83
2023/05/07 12:15:16;;;;;;;10.90;6.43;;;23.20;99.90;;;;;;7286707;19;20215;-81
2023/05/07 12:17:41;;;;;;;10.77;6.40;;;23.40;99.90;;;;;;7284135;19;20185;-83
2023/05/07 12:20:14;;;;;;;10.77;6.30;;;23.50;99.90;;;;;;7283996;19;20805;-81
2023/05/07 12:22:41;;;;;;;10.57;7.30;;;23.40;99.90;;;;;;7283543;19;20332;-83
2023/05/07 12:25:07;;;;;;;11.50;7.10;;;23.30;99.90;;;;;;7367026;19;20532;-84
2023/05/07 12:27:37;;;;;;;10.83;7.40;;;23.40;99.90;;;;;;7367583;19;20166;-84
2023/05/07 12:30:03;;;;;;;12.63;8.40;;;23.50;99.90;;;;;;7285469;19;20205;-85
2023/05/07 12:32:29;;;;;;;11.73;8.32;;;23.60;99.90;;;;;;7284711;19;20655;-83
2023/05/07 12:34:55;;;;;;;14.07;9.03;;;23.70;99.90;;;;;;7283569;19;20323;-82
2023/05/07 12:37:25;;;;;;;13.13;9.50;;;23.70;99.90;;;;;;7284329;19;20272;-83
2023/05/07 12:40:11;;;;;;;14.37;10.00;;;23.80;99.90;;;;;;7281714;19;20511;-82
2023/05/07 12:42:37;;;;;;;13.70;9.30;;;23.70;99.90;;;;;;7282271;19;20189;-83
2023/05/07 12:45:36;;;;;;;11.10;8.00;;;23.60;99.90;;;;;;7282836;19;20538;-82